METAR Data
IDs: Format: Raw Decoded Include TAF

Data at: 2019 UTC 19 May 2019

KSPW 192004Z AUTO 35013KT 7SM -RA FEW009 OVC016 09/07 A2981 RMK AO2 P0000 T00890067
KSPW 191953Z AUTO 33012KT 7SM -RA FEW010 OVC017 09/07 A2980 RMK AO2 SLP095 P0000 T00890067
KSPW 191853Z AUTO 33011KT 10SM -RA OVC018 09/06 A2978 RMK AO2 RAB51 SLP087 P0000 T00940061
KSPW 191753Z AUTO 36011KT 10SM OVC017 10/06 A2975 RMK AO2 SLP078 60002 T01000061 10111 20089 53018
KSPW 191653Z AUTO 34014KT 10SM BKN015 BKN021 OVC029 11/07 A2972 RMK AO2 RAE1559 SLP065 P0000 T01060067
KSPW 191611Z AUTO 35015G22KT 10SM SCT012 BKN018 OVC025 10/07 A2970 RMK AO2 RAE1559 P0000 T01000072
KSPW 191553Z AUTO 35014KT 10SM -RA BKN013 BKN017 OVC023 09/07 A2970 RMK AO2 RAE10B50 SLP059 P0001 T00940072
KSPW 191525Z AUTO 36011KT 10SM FEW008 BKN013 OVC020 10/08 A2969 RMK AO2 RAE10 P0001 T01000078
KSPW 191518Z AUTO 01013KT 9SM BKN008 OVC016 10/08 A2969 RMK AO2 RAE10 P0000 T01000078
KSPW 191514Z AUTO 35014KT 8SM SCT007 BKN015 OVC022 10/08 A2969 RMK AO2 RAE10 P0000 T01000078
KSPW 191453Z AUTO 34011KT 10SM -RA SCT007 BKN013 OVC020 09/08 A2970 RMK AO2 SLP057 P0001 60001 T00940078 52022
KSPW 191420Z AUTO 33011KT 2 1/2SM -RA BR SCT007 OVC014 09/08 A2969 RMK AO2 P0001 T00890078
KSPW 191414Z AUTO 33009KT 3SM -RA BR SCT007 OVC016 09/07 A2969 RMK AO2 P0001 T00890072
KSPW 191353Z AUTO 35007KT 2 1/2SM -RA BR FEW006 OVC014 09/08 A2968 RMK AO2 SLP050 P0000 T00890078
KSPW 191342Z AUTO 36007KT 3SM -RA BR BKN010 OVC016 09/07 A2967 RMK AO2 P0000 T00890072
KSPW 191253Z AUTO 01012KT 5SM -RA BR OVC007 09/08 A2965 RMK AO2 SLP040 P0000 T00940078
KSPW 191153Z AUTO 34008KT 5SM -RA BR OVC007 09/08 A2963 RMK AO2 CIG 004V011 SLP032 P0001 60009 70009 T00940078 10117 20094 53009
KSPW 191053Z AUTO 02010KT 8SM -RA BKN009 OVC015 09/08 A2962 RMK AO2 RAB52 CIG 008V012 SLP028 P0000 T00940078
KSPW 191032Z AUTO 36008KT 10SM OVC009 10/08 A2962 RMK AO2 CIG 008V013 T01000078
KSPW 191015Z AUTO 01011KT 10SM BKN010 BKN014 OVC022 10/08 A2960 RMK AO2 CIG 008V013 T01000083
KSPW 190953Z AUTO 01011KT 10SM OVC008 10/08 A2960 RMK AO2 RAE17 CIG 006V012 SLP020 P0000 T01000083
KSPW 190918Z AUTO 01012KT 10SM BKN005 OVC010 10/08 A2960 RMK AO2 RAE17 CIG 004V009 P0000 T01000083
KSPW 190853Z AUTO 01012KT 5SM -RA BR OVC004 10/09 A2960 RMK AO2 RAB01 SLP022 P0007 60008 T01000089 56003
KSPW 190820Z AUTO 36011KT 8SM -RA OVC004 11/09 A2960 RMK AO2 RAB01 P0000 T01060089
KSPW 190753Z AUTO 36011KT 8SM OVC005 11/09 A2960 RMK AO2 SLP021 T01110094
KSPW 190653Z AUTO 02008KT 10SM BKN006 12/10 A2959 RMK AO2 RAE21 SLP016 P0001 T01170100
KSPW 190643Z AUTO 01010KT 9SM BKN006 BKN021 OVC120 12/10 A2958 RMK AO2 RAE21 P0001 T01170100
KSPW 190629Z AUTO 04008KT 9SM SCT007 BKN021 OVC120 12/10 A2958 RMK AO2 RAE21 P0001 T01170100
KSPW 190553Z AUTO 36005KT 9SM -RA BKN007 BKN013 OVC023 12/10 A2961 RMK AO2 RAB10 SLP022 P0000 60000 T01170100 10183 20117 402500117 58006
KSPW 190453Z AUTO 04010KT 10SM BKN009 OVC023 12/10 A2964 RMK AO2 SLP033 T01220100
KSPW 190449Z AUTO 02009KT 10SM SCT009 OVC023 12/10 A2964 RMK AO2
KSPW 190417Z AUTO 03013KT 10SM SCT011 OVC019 12/10 A2964 RMK AO2 T01220100
KSPW 190353Z AUTO 02011G22KT 10SM OVC013 13/10 A2963 RMK AO2 RAB14E47 SLP029 P0000 T01280100
KSPW 190253Z AUTO 04013KT 10SM OVC014 15/12 A2962 RMK AO2 WSHFT 0231 SLP027 T01500122 50005
KSPW 190251Z AUTO 05014KT 10SM OVC014 15/12 A2962 RMK AO2 WSHFT 0231
KSPW 190239Z AUTO 07013KT 10SM BKN012 OVC019 16/13 A2962 RMK AO2 T01610128
KSPW 190213Z AUTO 34005KT 10SM FEW015 BKN028 OVC035 17/14 A2962 RMK AO2 T01720144
KSPW 190153Z AUTO 31005KT 10SM FEW016 OVC035 17/14 A2962 RMK AO2 SLP024 T01720139
KSPW 190053Z AUTO 30006KT 10SM BKN040 17/14 A2961 RMK AO2 SLP023 T01720144
KSPW 182353Z AUTO 31010KT 10SM FEW021 19/14 A2959 RMK AO2 SLP016 T01890144 10250 20189 55003
KSPW 182253Z AUTO 27011KT 10SM CLR 20/14 A2959 RMK AO2 SLP016 T02000144
KSPW 182153Z AUTO 24012KT 10SM CLR 21/14 A2958 RMK AO2 SLP013 T02060144
KSPW 182053Z AUTO 22013KT 10SM CLR 22/15 A2960 RMK AO2 SLP018 T02220150 53016
KSPW 181953Z AUTO 23009G19KT 10SM FEW026 FEW037 23/16 A2958 RMK AO2 SLP013 T02280161
KSPW 181853Z AUTO 25016G21KT 10SM FEW030 BKN040 BKN047 24/17 A2956 RMK AO2 SLP002 T02440172
KSPW 181753Z AUTO 24014KT 10SM OVC042 24/16 A2955 RMK AO2 PK WND 20026/1708 SLP000 T02440156 10250 20150 56004
KSPW 181653Z AUTO 21011G15KT 10SM FEW036 24/17 A2956 RMK AO2 SLP004 T02390167
KSPW 181553Z AUTO 17005KT 10SM CLR 22/17 A2954 RMK AO2 SLP999 T02220167
KSPW 181453Z AUTO 14009KT 10SM CLR 19/17 A2956 RMK AO2 SLP007 T01940167 53008
KSPW 181353Z AUTO 13009KT 7SM CLR 18/16 A2955 RMK AO2 SLP002 T01830161
KSPW 181308Z AUTO 12007KT 4SM BR SCT004 16/14 A2953 RMK AO2 T01610144
KSPW 181300Z AUTO 11012G19KT 3SM BR BKN004 16/14 A2952 RMK AO2 T01560144
KSPW 181253Z AUTO 11015KT 2 1/2SM BR BKN004 16/14 A2950 RMK AO2 PRESFR SLP988 T01560144
KSPW 181153Z AUTO 09012KT 2 1/2SM BR BKN004 BKN043 OVC110 15/14 A2954 RMK AO2 RAE08B33E52 SLP000 P0000 60028 70036 T01500139 10156 20139 58012
KSPW 181138Z AUTO 09016G23KT 2 1/2SM -RA BR FEW005 SCT080 BKN110 15/14 A2953 RMK AO2 RAE08B33 PRESFR P0000 T01500139
KSPW 181118Z AUTO 11012G21KT 3SM BR FEW005 SCT110 15/14 A2958 RMK AO2 RAE08 PRESRR P0000 T01500139
KSPW 181053Z AUTO 08016KT 3SM -RA BR BKN080 OVC100 15/14 A2956 RMK AO2 RAB44 SLP006 P0002 T01500139
KSPW 181043Z AUTO 10012KT 4SM BR SCT009 SCT075 OVC100 16/14 A2959 RMK AO2 T01560139
KSPW 180953Z AUTO 36005KT 5SM BR OVC006 16/14 A2961 RMK AO2 LTG DSNT NE RAE30 TSE11 CIG 005V011 SLP026 P0004 T01560139
KSPW 180942Z AUTO 35006KT 5SM BR BKN007 OVC032 16/14 A2962 RMK AO2 LTG DSNT N AND NE RAE30 TSE11 CIG 005V011 P0004 T01560139
KSPW 180923Z AUTO 15009G20KT 5SM -RA BR FEW007 BKN036 OVC048 16/14 A2959 RMK AO2 LTG DSNT N-E TSE11 P0004 T01560144
KSPW 180917Z AUTO 14013G20KT 5SM VCTS -RA BR SCT031 OVC040 16/14 A2959 RMK AO2 LTG DSNT N-E TSE11 P0004 T01560139
KSPW 180902Z AUTO 13013G23KT 3SM -TSRA BR BKN038 BKN050 OVC070 16/14 A2957 RMK AO2 LTG DSNT N AND NE AND S P0004 T01560139
KSPW 180853Z AUTO 12018G24KT 1 1/2SM +TSRA BR SCT027 BKN038 OVC100 15/14 A2957 RMK AO2 PK WND 13027/0831 LTG DSNT N AND SW RAB44 TSB45 SLP012 P0022 60022 T01500139 56018
KSPW 180849Z AUTO 13017G24KT 2 1/2SM +TSRA BR FEW006 SCT029 BKN041 16/14 A2959 RMK AO2 PK WND 13027/0831 LTG DSNT SW-N RAB44 TSB45 PRESRR P0012
KSPW 180839Z AUTO 13017G27KT 6SM VCTS BR FEW006 SCT039 BKN050 16/14 A2956 RMK AO2 PK WND 13027/0831 LTG DSNT SW-N T01560139
KSPW 180831Z AUTO 12020G27KT 6SM VCTS BR BKN006 BKN100 15/13 A2954 RMK AO2 PK WND 13027/0831 LTG DSNT SW-N T01500133